Terminal Aerodrome Forecast
Issued by NWS Norman, OK

Home | Current Version | Previous Version | Text Only | Print | Product List | Glossary On
Versions: 1 2 3 4 5 6 7 8 9 10 11 12 13 14 15 16 17 18 19 20 21 22 23 24 25 26
000
FTUS44 KOUN 310534
TAFSPS
TAF
KSPS 310534Z 3106/0106 17007KT P6SM SKC
     FM311500 20012KT P6SM SKC
     FM312000 17013KT P6SM FEW050
     FM010100 15008KT P6SM SKC=

USA.gov is the U.S. government's official web portal to all federal, state and local government web resources and services.